MST,Max TemperatureF,Mean TemperatureF,Min TemperatureF,Max Dew PointF,MeanDew PointF,Min DewpointF,Max Humidity, Mean Humidity, Min Humidity, Max Sea Level PressureIn, Mean Sea Level PressureIn, Min Sea Level PressureIn, Max VisibilityMiles, Mean VisibilityMiles, Min VisibilityMiles, Max Wind SpeedMPH, Mean Wind SpeedMPH, Max Gust SpeedMPH,PrecipitationIn, CloudCover, Events, WindDirDegrees
2012-1-1,28,22,15,16,8,1,80,57,37,30.53,30.45,30.29,10,10,10,10,4,,0.00,5,,150
2012-1-2,33,22,12,21,12,7,86,77,60,30.52,30.32,30.13,10,10,10,14,2,,0.00,0,,199
2012-1-3,51,48,46,19,16,12,32,27,24,30.25,30.14,30.03,10,10,10,21,10,38,0.00,0,,253
2012-1-4,57,42,28,27,17,12,70,37,17,30.30,30.26,30.20,10,10,10,25,11,39,0.00,0,,248
2012-1-5,59,52,37,23,19,16,56,28,19,30.18,30.00,29.85,10,10,10,22,13,34,0.00,0,,229
2012-1-6,35,28,21,21,18,16,93,66,48,30.11,30.02,29.96,10,10,10,16,6,,0.00,0,,154
2012-1-7,32,26,19,18,14,10,86,65,41,30.12,30.03,29.92,10,10,9,14,5,,0.00,3,,63
2012-1-8,33,25,17,19,14,9,74,59,40,30.13,30.08,30.04,10,10,10,17,9,28,0.00,0,,350
2012-1-9,46,32,17,27,21,16,100,73,46,30.22,30.17,30.10,10,10,10,12,2,,0.00,0,,53
2012-1-10,51,38,24,27,20,16,80,42,26,30.06,29.91,29.76,10,10,10,24,10,33,0.00,2,,257
2012-1-11,17,11,5,12,3,0,85,67,49,30.29,30.24,30.15,10,10,10,22,9,29,0.00,2,,279
2012-1-12,32,18,3,14,6,0,92,69,41,30.16,30.12,30.07,10,10,10,13,3,,0.00,2,,16
2012-1-13,46,29,12,16,6,1,79,33,18,30.05,29.99,29.94,10,10,10,24,13,39,0.00,2,,261
2012-1-14,51,38,26,16,10,3,55,33,14,30.05,29.90,29.74,10,10,10,21,10,34,0.00,0,,226
2012-1-15,48,32,17,18,10,7,79,38,19,29.73,29.64,29.60,10,10,10,24,17,37,0.00,0,,252
2012-1-16,15,9,3,10,3,0,92,78,62,29.94,29.79,29.69,10,8,2,16,11,26,0.00,6,,271
2012-1-17,24,10,-4,1,-3,-9,100,50,31,29.98,29.92,29.80,10,10,10,23,6,39,0.00,0,,224
2012-1-18,35,18,0,21,10,-9,92,57,17,29.71,29.61,29.51,10,10,4,31,13,51,0.00,7,,211
2012-1-19,42,18,-5,32,4,-17,100,79,43,29.61,29.53,29.44,10,10,4,26,9,36,0.00,3,,2
2012-1-20,42,22,1,28,11,-2,100,80,41,29.81,29.68,29.45,10,10,10,28,16,41,0.00,1,,46
2012-1-21,44,42,42,25,25,25,49,48,46,29.60,29.32,29.21,10,10,10,26,11,31,0.00,3,,140
2012-1-22,35,32,30,34,14,3,100,52,28,29.81,29.71,29.42,10,10,2,25,11,37,0.00,2,,235
2012-1-23,41,34,26,18,12,9,60,42,29,29.80,29.75,29.69,10,10,10,24,13,34,0.00,1,,168
2012-1-24,37,28,19,25,7,-4,93,46,18,30.11,30.04,29.91,10,10,10,21,7,30,0.00,1,,218
2012-1-25,50,42,35,27,19,5,56,40,26,30.03,29.90,29.79,10,10,10,33,22,56,0.01,0,,247
2012-1-26,44,40,37,30,20,10,75,45,29,30.04,29.87,29.69,10,10,10,25,13,38,0.00,1,,266
2012-1-27,32,26,21,16,3,-11,64,37,16,30.21,30.13,29.88,10,10,10,20,9,26,0.00,2,,330
2012-1-28,35,30,26,9,2,0,35,29,23,30.20,30.16,30.11,10,10,10,23,9,33,0.00,2,,303
2012-1-29,53,44,35,21,19,16,49,36,24,30.10,30.00,29.84,10,10,10,28,21,45,0.00,3,,255
2012-1-30,46,42,37,27,16,9,65,35,23,29.82,29.74,29.69,10,10,7,22,12,40,0.00,4,,273
2012-1-31,44,38,32,21,14,10,56,37,25,30.00,29.94,29.85,10,10,10,22,12,33,0.00,0,,306